Time;durP1;ratioP1;P1;durP2;ratioP2;P2;SDS_P1;SDS_P2;PMS_P1;PMS_P2;Temp;Humidity;BMP_temperature;BMP_pressure;BME280_temperature;BME280_humidity;BME280_pressure;Samples;Min_cycle;Max_cycle;Signal;HPM_P1;HPM_P2
2020/12/26 00:01:18;;;;;;;15.70;8.75;;;2.80;99.90;;;3.40;93.25;101505.13;4937546;29;20031;-82
2020/12/26 00:03:46;;;;;;;16.95;7.88;;;2.80;99.90;;;3.45;93.11;101512.53;4938674;29;20028;-80
2020/12/26 00:06:20;;;;;;;18.63;8.65;;;2.80;99.90;;;3.40;93.17;101507.91;4937429;29;20064;-79
2020/12/26 00:08:48;;;;;;;14.38;7.38;;;2.80;99.90;;;3.44;92.88;101511.72;4937433;29;20027;-80
2020/12/26 00:11:17;;;;;;;12.57;6.72;;;2.80;99.90;;;3.47;92.76;101508.38;4938025;29;20103;-82
2020/12/26 00:13:46;;;;;;;15.75;8.02;;;2.80;99.90;;;3.51;92.70;101512.19;4938180;29;20078;-80
2020/12/26 00:16:15;;;;;;;20.20;7.90;;;2.80;99.90;;;3.40;92.91;101510.66;4937838;29;20032;-81
2020/12/26 00:18:42;;;;;;;13.70;7.10;;;2.80;99.90;;;3.35;93.06;101505.16;4922057;29;20036;-82
2020/12/26 00:21:15;;;;;;;14.82;6.97;;;2.80;99.90;;;3.52;92.93;101504.75;4937576;29;20027;-83
2020/12/26 00:23:42;;;;;;;17.75;7.85;;;2.90;99.90;;;3.49;92.68;101503.38;4937097;29;20476;-83
2020/12/26 00:26:08;;;;;;;14.60;7.32;;;2.90;99.90;;;3.27;93.12;101500.28;4937484;29;20051;-81
2020/12/26 00:28:34;;;;;;;16.85;8.10;;;2.80;99.90;;;3.45;93.08;101504.25;4937460;29;20024;-82
2020/12/26 00:31:03;;;;;;;20.90;9.18;;;2.90;99.90;;;3.24;93.57;101500.84;4937665;29;20040;-81
2020/12/26 00:33:31;;;;;;;17.60;9.25;;;2.80;99.90;;;3.38;93.39;101503.75;4937846;29;20032;-83
2020/12/26 00:35:57;;;;;;;14.77;8.88;;;2.80;99.90;;;3.39;92.74;101514.53;4937493;29;20168;-80
2020/12/26 00:38:23;;;;;;;17.75;8.45;;;2.80;99.90;;;3.47;92.70;101513.88;4937279;29;20480;-81
2020/12/26 00:40:49;;;;;;;16.25;9.85;;;2.80;99.90;;;3.45;92.37;101507.00;4937024;29;20114;-81
2020/12/26 00:43:15;;;;;;;21.38;9.73;;;2.80;99.90;;;3.32;92.37;101505.75;4936289;29;20400;-81
2020/12/26 00:45:41;;;;;;;16.80;9.57;;;2.80;99.90;;;3.34;92.95;101511.78;4937800;29;20036;-81
2020/12/26 00:48:07;;;;;;;25.63;10.82;;;2.80;99.90;;;3.29;93.01;101511.00;4936826;29;20035;-80
2020/12/26 00:50:33;;;;;;;17.00;10.02;;;2.80;99.90;;;3.35;92.70;101516.22;4936516;29;20044;-82
2020/12/26 00:52:59;;;;;;;16.17;10.05;;;2.70;99.90;;;3.32;92.80;101510.44;4936067;29;20035;-82
2020/12/26 00:55:25;;;;;;;20.17;10.60;;;2.70;99.90;;;3.28;92.43;101512.13;4936223;29;20035;-78
2020/12/26 00:57:51;;;;;;;19.92;10.88;;;2.70;99.90;;;3.27;93.06;101514.09;4937298;29;20024;-82
2020/12/26 01:00:16;;;;;;;27.15;10.02;;;2.70;99.90;;;3.23;93.04;101515.75;4936472;29;20031;-82
2020/12/26 01:02:42;;;;;;;19.98;10.23;;;2.70;99.90;;;3.22;93.16;101514.09;4937277;29;20038;-81
2020/12/26 01:05:08;;;;;;;18.73;9.95;;;2.70;99.90;;;3.28;92.86;101517.63;4937924;29;20434;-81
2020/12/26 01:07:38;;;;;;;19.50;9.95;;;2.70;99.90;;;3.31;92.34;101509.59;4936204;29;20036;-79
2020/12/26 01:10:09;;;;;;;23.08;10.60;;;2.70;99.90;;;3.28;92.19;101512.94;4937876;29;20425;-81
2020/12/26 01:12:35;;;;;;;23.15;10.88;;;2.70;99.90;;;3.16;92.98;101506.97;4936403;29;20036;-79
2020/12/26 01:15:03;;;;;;;17.67;10.45;;;2.70;99.90;;;3.25;92.54;101498.91;4936343;29;20408;-82
2020/12/26 01:17:29;;;;;;;21.00;10.70;;;2.60;99.90;;;3.18;92.82;101500.06;4938260;29;20024;-84
2020/12/26 01:19:56;;;;;;;18.48;10.23;;;2.70;99.90;;;3.21;92.64;101518.00;4937191;29;20055;-82
2020/12/26 01:22:22;;;;;;;22.55;10.40;;;2.60;99.90;;;3.19;92.90;101528.50;4922911;29;20034;-81
2020/12/26 01:24:48;;;;;;;21.05;10.63;;;2.60;99.90;;;3.08;93.30;101527.72;4939792;29;20036;-83
2020/12/26 01:27:16;;;;;;;17.52;9.30;;;2.60;99.90;;;3.23;92.62;101526.81;4924681;29;20031;-82
2020/12/26 01:29:43;;;;;;;22.60;11.65;;;2.60;99.90;;;3.16;92.83;101529.06;4941008;29;20124;-82
2020/12/26 01:32:09;;;;;;;25.70;10.35;;;2.60;99.90;;;3.14;92.98;101520.25;4943105;29;20397;-84
2020/12/26 01:34:35;;;;;;;23.90;9.88;;;2.60;99.90;;;3.21;92.79;101529.03;4941815;29;20032;-85
2020/12/26 01:37:02;;;;;;;19.73;9.93;;;2.70;99.90;;;3.17;92.51;101522.44;4947584;29;20440;-81
2020/12/26 01:39:28;;;;;;;15.63;10.10;;;2.60;99.90;;;3.19;92.52;101523.78;4947685;29;20511;-84
2020/12/26 01:41:55;;;;;;;19.55;11.13;;;2.60;99.90;;;3.21;92.69;101525.44;4944343;29;20099;-81
2020/12/26 01:44:23;;;;;;;23.80;11.68;;;2.60;99.90;;;3.19;92.91;101525.72;4926986;29;20059;-79
2020/12/26 01:46:52;;;;;;;24.83;11.15;;;2.50;99.90;;;3.15;92.87;101527.41;4926984;29;20403;-81
2020/12/26 01:49:22;;;;;;;18.20;12.07;;;2.60;99.90;;;3.08;93.48;101518.66;4942612;29;20060;-83
2020/12/26 01:51:50;;;;;;;29.02;12.27;;;2.50;99.90;;;3.19;93.19;101515.50;4942875;29;20087;-82
2020/12/26 01:54:17;;;;;;;21.50;11.90;;;2.60;99.90;;;3.26;92.76;101520.72;4946719;29;20038;-81
2020/12/26 01:56:47;;;;;;;21.25;13.10;;;2.60;99.90;;;3.11;93.34;101523.59;4943853;29;20028;-82
2020/12/26 01:59:13;;;;;;;23.48;13.23;;;2.60;99.90;;;3.12;93.55;101533.50;4942386;29;20112;-79
2020/12/26 02:01:43;;;;;;;28.70;13.13;;;2.60;99.90;;;3.16;93.14;101523.53;4943318;29;20448;-82
2020/12/26 02:04:12;;;;;;;29.23;13.77;;;2.60;99.90;;;3.24;92.75;101517.41;4943828;29;20492;-83
2020/12/26 02:06:48;;;;;;;21.83;13.48;;;2.60;99.90;;;3.24;93.20;101535.91;4943889;29;20395;-82
2020/12/26 02:09:16;;;;;;;26.60;13.15;;;2.60;99.90;;;3.16;92.96;101529.06;4942641;29;20103;-85
2020/12/26 02:11:43;;;;;;;24.67;13.82;;;2.60;99.90;;;3.13;93.17;101530.47;4943147;29;20028;-83
2020/12/26 02:14:10;;;;;;;29.20;14.15;;;2.60;99.90;;;3.19;93.52;101525.72;4943102;29;20530;-80
2020/12/26 02:16:53;;;;;;;33.13;14.40;;;2.60;99.90;;;3.19;92.97;101515.50;4937484;29;20050;-84
2020/12/26 02:19:24;;;;;;;26.27;14.77;;;2.60;99.90;;;3.20;92.95;101521.88;4936440;29;20035;-78
2020/12/26 02:21:51;;;;;;;27.50;14.00;;;2.70;99.90;;;3.30;92.39;101532.00;4920827;29;20040;-81
2020/12/26 02:24:17;;;;;;;32.83;15.48;;;2.70;99.90;;;3.22;92.92;101527.09;4942540;29;20400;-80
2020/12/26 02:26:44;;;;;;;29.00;14.82;;;2.70;99.90;;;3.29;92.34;101527.59;4949098;29;20036;-80
2020/12/26 02:29:10;;;;;;;31.92;14.52;;;2.70;99.90;;;3.27;92.64;101533.41;4952597;29;20046;-82
2020/12/26 02:31:36;;;;;;;29.20;14.88;;;2.70;99.90;;;3.23;92.56;101529.56;4956054;29;20032;-84
2020/12/26 02:34:04;;;;;;;29.60;16.48;;;2.70;99.90;;;3.25;92.58;101532.84;4954356;29;20047;-83
2020/12/26 02:36:31;;;;;;;29.30;14.07;;;2.70;99.90;;;3.24;92.54;101527.63;4955511;29;20036;-82
2020/12/26 02:38:57;;;;;;;26.00;14.20;;;2.70;99.90;;;3.22;92.74;101516.88;4950691;29;20063;-85
2020/12/26 02:41:23;;;;;;;25.60;13.45;;;2.70;99.90;;;3.25;92.16;101519.03;4945775;29;20484;-83
2020/12/26 02:43:49;;;;;;;24.98;14.90;;;2.70;99.90;;;3.25;92.47;101515.47;4944797;29;20094;-84
2020/12/26 02:46:15;;;;;;;28.23;15.00;;;2.70;99.90;;;3.21;92.33;101514.41;4942175;29;20036;-82
2020/12/26 02:48:41;;;;;;;28.80;12.02;;;2.70;99.90;;;3.28;92.15;101520.41;4942080;29;20035;-83
2020/12/26 02:51:07;;;;;;;26.73;12.57;;;2.70;99.90;;;3.18;92.38;101515.78;4924829;29;20148;-83
2020/12/26 02:53:34;;;;;;;23.48;12.50;;;2.60;99.90;;;3.17;92.36;101512.22;4942105;29;20437;-82
2020/12/26 02:56:00;;;;;;;19.90;11.52;;;2.60;99.90;;;3.08;92.76;101502.09;4925565;29;20042;-82
2020/12/26 02:58:26;;;;;;;24.85;12.65;;;2.70;99.90;;;3.19;92.31;101511.91;4941981;29;20031;-83
2020/12/26 03:00:52;;;;;;;18.02;11.35;;;2.60;99.90;;;3.15;92.46;101505.31;4940219;29;20083;-83
2020/12/26 03:03:18;;;;;;;19.38;11.07;;;2.60;99.90;;;3.15;92.46;101510.84;4939977;29;20142;-81
2020/12/26 03:05:47;;;;;;;21.80;10.70;;;2.60;99.90;;;3.23;92.19;101509.41;4939089;29;20043;-82
2020/12/26 03:08:13;;;;;;;20.33;10.85;;;2.60;99.90;;;3.17;91.73;101503.94;4938973;29;20062;-83
2020/12/26 03:10:39;;;;;;;22.75;10.93;;;2.60;99.90;;;3.19;91.83;101492.59;4938609;29;20169;-84
2020/12/26 03:13:05;;;;;;;20.33;10.60;;;2.60;99.90;;;3.18;91.50;101491.78;4937217;29;20038;-81
2020/12/26 03:15:31;;;;;;;21.70;9.65;;;2.50;99.90;;;3.06;91.67;101501.53;4938066;29;20119;-82
2020/12/26 03:17:57;;;;;;;14.82;9.23;;;2.60;99.90;;;3.09;91.77;101498.19;4938572;29;20035;-83
2020/12/26 03:20:23;;;;;;;16.42;9.48;;;2.50;99.90;;;3.04;92.32;101493.56;4937629;29;20495;-83
2020/12/26 03:22:49;;;;;;;15.55;9.48;;;2.50;99.90;;;2.97;92.46;101484.78;4937112;29;20103;-82
2020/12/26 03:25:15;;;;;;;16.73;9.65;;;2.40;99.90;;;2.98;92.08;101483.66;4936256;29;20059;-82
2020/12/26 03:27:41;;;;;;;19.50;8.80;;;2.40;99.90;;;3.01;91.90;101480.34;4936402;29;20031;-83
2020/12/26 03:30:07;;;;;;;18.45;9.50;;;2.40;99.90;;;3.01;91.68;101488.63;4935325;29;20188;-81
2020/12/26 03:32:33;;;;;;;19.17;9.75;;;2.40;99.90;;;2.91;92.26;101485.91;4935805;29;20027;-81
2020/12/26 03:34:59;;;;;;;25.30;10.20;;;2.40;99.90;;;2.93;92.24;101485.63;4936780;29;20119;-80
2020/12/26 03:37:25;;;;;;;17.85;9.65;;;2.40;99.90;;;2.95;92.04;101484.25;4936785;29;20063;-83
2020/12/26 03:39:51;;;;;;;15.70;10.07;;;2.40;99.90;;;2.92;92.46;101484.00;4935916;29;20400;-81
2020/12/26 03:42:17;;;;;;;20.23;10.50;;;2.40;99.90;;;2.97;92.00;101487.53;4937030;29;20037;-82
2020/12/26 03:44:43;;;;;;;22.45;10.98;;;2.50;99.90;;;3.01;92.14;101485.84;4937984;29;20067;-83
2020/12/26 03:47:10;;;;;;;25.48;11.80;;;2.40;99.90;;;3.00;92.24;101480.59;4937223;29;20099;-81
2020/12/26 03:49:38;;;;;;;18.25;10.68;;;2.40;99.90;;;3.10;92.17;101478.59;4938823;29;20461;-83
2020/12/26 03:52:04;;;;;;;19.55;10.82;;;2.50;99.90;;;3.13;92.17;101488.22;4945925;29;20027;-85
2020/12/26 03:54:31;;;;;;;24.25;12.05;;;2.50;99.90;;;3.10;92.22;101484.13;4954058;29;20036;-81
2020/12/26 03:56:57;;;;;;;19.55;10.60;;;2.50;99.90;;;3.08;91.77;101480.00;4955533;29;20042;-81
2020/12/26 03:59:24;;;;;;;19.98;11.90;;;2.60;99.90;;;3.07;91.77;101484.69;4940285;29;20074;-78
2020/12/26 04:01:50;;;;;;;19.73;10.90;;;2.60;99.90;;;3.23;91.05;101479.03;4938602;29;20404;-82
2020/12/26 04:04:16;;;;;;;24.33;12.50;;;2.60;99.90;;;3.24;90.91;101483.47;4939595;29;20039;-83
2020/12/26 04:06:43;;;;;;;24.27;12.43;;;2.70;99.90;;;3.32;90.52;101472.59;4938511;29;20483;-80
2020/12/26 04:09:10;;;;;;;19.38;12.05;;;2.70;99.90;;;3.33;90.53;101465.16;4938647;29;20091;-81
2020/12/26 04:11:37;;;;;;;28.15;12.90;;;2.70;99.90;;;3.24;90.49;101461.38;4938119;29;20562;-81
2020/12/26 04:14:06;;;;;;;24.75;13.15;;;2.70;99.90;;;3.27;90.14;101463.56;4939412;29;20072;-83
2020/12/26 04:16:32;;;;;;;26.08;12.70;;;2.70;99.90;;;3.29;90.11;101453.03;4937312;29;20046;-80
2020/12/26 04:18:59;;;;;;;29.52;13.15;;;2.80;99.90;;;3.25;90.28;101451.97;4937594;29;20123;-79
2020/12/26 04:21:26;;;;;;;26.55;13.63;;;2.70;99.90;;;3.33;89.99;101457.69;4937023;29;20482;-81
2020/12/26 04:23:53;;;;;;;29.00;12.95;;;2.80;99.90;;;3.41;89.44;101451.53;4938406;29;20031;-83
2020/12/26 04:26:21;;;;;;;28.40;13.30;;;2.80;99.90;;;3.41;89.89;101450.69;4938150;29;20069;-83
2020/12/26 04:28:49;;;;;;;25.38;13.15;;;2.80;99.90;;;3.43;89.60;101445.72;4937567;29;20073;-83
2020/12/26 04:31:16;;;;;;;27.92;13.32;;;2.80;99.90;;;3.45;89.42;101452.59;4938480;29;20042;-83
2020/12/26 04:33:42;;;;;;;29.35;13.38;;;2.90;99.90;;;3.44;89.57;101437.13;4937271;29;20496;-81
2020/12/26 04:36:08;;;;;;;25.02;12.15;;;2.80;99.90;;;3.48;89.05;101443.72;4937824;29;20034;-81
2020/12/26 04:38:34;;;;;;;23.80;13.00;;;2.90;99.90;;;3.54;88.60;101430.69;4937579;29;20119;-82
2020/12/26 04:41:02;;;;;;;32.60;12.48;;;2.90;99.90;;;3.44;88.92;101439.06;4937486;29;20281;-81
2020/12/26 04:43:29;;;;;;;24.48;11.52;;;2.90;99.90;;;3.35;89.44;101436.13;4936964;29;20047;-81
2020/12/26 04:45:59;;;;;;;24.48;12.13;;;2.90;99.90;;;3.47;88.81;101432.97;4937814;29;20044;-83
2020/12/26 04:48:30;;;;;;;18.73;10.77;;;2.90;99.90;;;3.55;88.38;101426.81;4938679;29;20500;-81
2020/12/26 04:51:04;;;;;;;24.50;11.45;;;2.90;99.90;;;3.45;88.82;101415.88;4938453;29;20074;-83
2020/12/26 04:53:35;;;;;;;23.60;11.27;;;3.00;99.90;;;3.48;87.93;101420.81;4937528;29;20138;-82
2020/12/26 04:56:02;;;;;;;16.77;9.82;;;3.00;99.90;;;3.53;88.16;101416.03;4937111;29;20028;-80
2020/12/26 04:58:31;;;;;;;21.48;10.38;;;3.00;99.90;;;3.56;87.26;101420.19;4937106;29;20118;-83
2020/12/26 05:00:58;;;;;;;15.50;9.05;;;3.00;99.90;;;3.57;87.43;101419.06;4936956;29;20032;-82
2020/12/26 05:03:28;;;;;;;21.85;8.98;;;3.00;99.90;;;3.61;87.51;101420.94;4936572;29;20032;-81
2020/12/26 05:06:06;;;;;;;21.50;8.80;;;3.00;99.90;;;3.61;87.26;101414.59;4937153;29;20035;-83
2020/12/26 05:08:33;;;;;;;16.45;9.13;;;3.00;99.90;;;3.57;87.54;101405.25;4937056;29;20039;-80
2020/12/26 05:11:01;;;;;;;16.75;8.63;;;3.00;99.90;;;3.52;87.85;101408.06;4939183;29;20039;-81
2020/12/26 05:13:27;;;;;;;15.48;8.55;;;2.90;99.90;;;3.59;88.01;101409.38;4938855;29;20035;-82
2020/12/26 05:15:54;;;;;;;18.58;9.32;;;3.00;99.90;;;3.49;88.65;101412.25;4938260;29;20050;-82
2020/12/26 05:18:24;;;;;;;19.23;9.13;;;3.00;99.90;;;3.52;88.21;101408.06;4938593;29;20039;-79
2020/12/26 05:20:50;;;;;;;17.65;9.52;;;2.90;99.90;;;3.50;88.69;101413.06;4937116;29;20098;-80
2020/12/26 05:23:18;;;;;;;20.80;9.00;;;3.00;99.90;;;3.48;88.64;101401.47;4936983;29;20178;-82
2020/12/26 05:25:50;;;;;;;22.00;9.73;;;2.90;99.90;;;3.66;88.32;101406.28;4937552;29;20035;-81
2020/12/26 05:28:33;;;;;;;20.13;11.20;;;2.90;99.90;;;3.61;88.07;101409.91;4939181;29;20134;-80
2020/12/26 05:31:07;;;;;;;21.13;11.80;;;3.00;99.90;;;3.58;88.37;101407.72;4921191;29;20031;-81
2020/12/26 05:33:34;;;;;;;21.17;12.55;;;3.00;99.90;;;3.51;89.09;101398.13;4937859;29;20028;-81
2020/12/26 05:36:05;;;;;;;27.50;14.63;;;3.00;99.90;;;3.65;88.34;101399.09;4938788;29;20421;-82
2020/12/26 05:38:31;;;;;;;24.90;14.98;;;3.00;99.90;;;3.70;88.24;101401.78;4920860;29;20031;-83
2020/12/26 05:41:01;;;;;;;29.88;14.95;;;3.00;99.90;;;3.71;87.92;101395.97;4937619;29;20031;-82
2020/12/26 05:43:31;;;;;;;25.17;15.30;;;3.00;99.90;;;3.68;88.61;101398.50;4938359;29;20063;-82
2020/12/26 05:46:00;;;;;;;25.80;16.25;;;3.10;99.90;;;3.66;88.84;101401.53;4993686;23;20129;-81
2020/12/26 05:48:28;;;;;;;32.08;16.02;;;3.10;99.90;;;3.75;88.86;101401.72;4972939;28;20054;-82
2020/12/26 05:51:01;;;;;;;26.13;15.52;;;3.10;99.90;;;3.76;88.35;101400.59;4973539;28;20133;-84
2020/12/26 05:53:29;;;;;;;25.38;15.60;;;3.10;99.90;;;3.70;89.20;101393.50;4957373;28;20031;-83
2020/12/26 05:55:56;;;;;;;28.88;16.70;;;3.10;99.90;;;3.76;88.70;101385.97;4956755;28;20031;-79
2020/12/26 05:58:25;;;;;;;34.33;17.08;;;3.10;99.90;;;3.61;89.63;101389.72;4955859;29;20034;-84
2020/12/26 06:01:01;;;;;;;29.02;17.08;;;3.10;99.90;;;3.77;89.14;101382.91;4954907;29;20031;-82
2020/12/26 06:03:36;;;;;;;37.03;18.23;;;3.10;99.90;;;3.82;89.01;101382.03;4953642;29;20027;-82
2020/12/26 06:06:05;;;;;;;26.85;16.63;;;3.10;99.90;;;3.80;89.42;101384.25;4943851;29;20039;-82
2020/12/26 06:08:32;;;;;;;31.80;19.40;;;3.20;99.90;;;3.71;89.73;101370.28;4935335;29;20118;-84
2020/12/26 06:11:06;;;;;;;30.35;18.33;;;3.20;99.90;;;3.83;89.05;101367.91;4954235;29;20067;-83
2020/12/26 06:13:37;;;;;;;34.10;20.00;;;3.20;99.90;;;3.93;89.19;101364.19;4942979;29;20036;-85
2020/12/26 06:16:25;;;;;;;34.08;20.65;;;3.20;99.90;;;3.91;88.88;101360.91;4945999;28;20066;-81
2020/12/26 06:18:59;;;;;;;31.55;19.90;;;3.20;99.90;;;3.86;89.10;101358.19;4934658;29;20405;-82
2020/12/26 06:21:26;;;;;;;32.63;19.95;;;3.20;99.90;;;3.84;89.14;101371.50;4935609;29;20036;-83
2020/12/26 06:23:54;;;;;;;33.72;19.55;;;3.20;99.90;;;3.90;89.02;101362.03;4935778;29;20046;-84
2020/12/26 06:26:20;;;;;;;35.50;20.65;;;3.20;99.90;;;3.86;89.03;101366.47;4938574;29;20507;-82
2020/12/26 06:28:47;;;;;;;34.65;20.13;;;3.20;99.90;;;3.79;89.75;101368.81;4953735;29;20391;-83
2020/12/26 06:31:17;;;;;;;29.15;17.73;;;3.20;99.90;;;3.89;89.06;101372.25;4951363;29;20019;-83
2020/12/26 06:33:50;;;;;;;31.40;17.25;;;3.20;99.90;;;3.90;88.98;101378.59;4925724;29;20031;-82
2020/12/26 06:36:19;;;;;;;26.95;17.73;;;3.30;99.90;;;3.95;88.52;101371.06;4937820;29;20391;-82
2020/12/26 06:38:44;;;;;;;26.15;16.17;;;3.30;99.90;;;3.89;89.08;101371.41;4955001;29;20023;-83
2020/12/26 06:41:18;;;;;;;25.38;14.27;;;3.30;99.90;;;3.90;88.88;101371.13;4938270;29;20463;-81
2020/12/26 06:43:53;;;;;;;20.52;14.07;;;3.30;99.90;;;3.94;88.69;101376.91;4937935;29;20068;-82
2020/12/26 06:46:22;;;;;;;24.10;15.02;;;3.30;99.90;;;3.87;88.43;101374.50;4953178;29;20019;-83
2020/12/26 06:48:57;;;;;;;22.25;14.35;;;3.30;99.90;;;3.80;89.35;101371.25;4937150;29;20032;-81
2020/12/26 06:51:53;;;;;;;21.80;14.25;;;3.30;99.90;;;3.82;89.09;101369.00;4937366;29;20087;-81
2020/12/26 06:54:43;;;;;;;20.08;12.88;;;3.30;99.90;;;3.83;89.00;101367.91;4936173;29;21059;-82
2020/12/26 06:57:36;;;;;;;19.10;13.13;;;3.30;99.90;;;3.80;88.88;101368.50;4953962;29;20055;-82
2020/12/26 07:00:25;;;;;;;20.17;14.32;;;3.30;99.90;;;3.85;88.55;101385.03;4953198;29;20039;-82
2020/12/26 07:03:29;;;;;;;18.10;13.45;;;3.20;99.90;;;3.91;88.66;101375.56;4934479;29;20068;-81
2020/12/26 07:05:58;;;;;;;22.00;15.15;;;3.20;99.90;;;3.77;88.95;101385.66;4935726;28;20027;-81
2020/12/26 07:08:33;;;;;;;25.40;15.23;;;3.20;99.90;;;3.91;87.95;101389.38;4936932;29;20043;-83
2020/12/26 07:11:24;;;;;;;23.63;14.70;;;3.20;99.90;;;3.80;88.78;101389.78;4939713;29;20559;-80
2020/12/26 07:13:54;;;;;;;25.50;16.05;;;3.20;99.90;;;3.83;88.45;101389.19;4936617;29;20047;-81
2020/12/26 07:16:45;;;;;;;28.63;16.17;;;3.20;99.90;;;3.79;88.89;101397.25;4950631;29;20025;-81
2020/12/26 07:19:20;;;;;;;24.98;15.40;;;3.20;99.90;;;3.66;89.31;101396.00;4937903;29;20042;-80
2020/12/26 07:22:05;;;;;;;29.53;17.17;;;3.20;99.90;;;3.60;89.94;101397.19;4948032;29;20031;-82
2020/12/26 07:24:44;;;;;;;24.50;15.80;;;3.20;99.90;;;3.77;89.24;101395.91;4946743;29;20047;-83
2020/12/26 07:27:38;;;;;;;27.00;16.75;;;3.10;99.90;;;3.72;89.37;101388.50;4959374;29;20069;-82
2020/12/26 07:30:18;;;;;;;27.08;15.77;;;3.20;99.90;;;3.81;89.02;101399.72;4956969;29;20039;-81
2020/12/26 07:32:50;;;;;;;29.55;16.98;;;3.20;99.90;;;3.77;89.25;101405.00;4941813;29;20030;-82
2020/12/26 07:35:23;;;;;;;27.20;16.38;;;3.20;99.90;;;3.71;89.31;101398.72;4923055;29;20027;-82
2020/12/26 07:38:12;;;;;;;30.70;17.20;;;3.20;99.90;;;3.75;89.40;101398.97;4939262;29;20398;-82
2020/12/26 07:40:47;;;;;;;25.10;16.15;;;3.20;99.90;;;3.70;89.20;101385.19;4937968;29;20117;-82
2020/12/26 07:43:18;;;;;;;28.15;16.52;;;3.20;99.90;;;3.79;89.15;101391.72;4958208;28;20035;-83
2020/12/26 07:45:47;;;;;;;27.15;16.42;;;3.20;99.90;;;3.80;88.90;101395.31;4958070;28;20031;-80
2020/12/26 07:48:13;;;;;;;25.33;16.17;;;3.20;99.90;;;3.52;90.41;101395.09;4940695;29;20040;-81
2020/12/26 07:50:42;;;;;;;26.05;16.27;;;3.10;99.90;;;3.64;90.04;101389.16;4946361;29;20033;-83
2020/12/26 07:53:11;;;;;;;26.02;15.80;;;3.10;99.90;;;3.69;89.69;101400.94;4956355;29;21594;-83
2020/12/26 07:55:37;;;;;;;24.60;15.57;;;3.20;99.90;;;3.78;89.56;101409.44;4945344;29;20379;-82
2020/12/26 07:58:12;;;;;;;24.65;15.52;;;3.20;99.90;;;3.84;88.78;101418.47;4939224;29;20034;-81
2020/12/26 08:00:42;;;;;;;27.38;15.77;;;3.20;99.90;;;3.94;88.77;101413.66;4951966;29;20079;-82
2020/12/26 08:03:12;;;;;;;25.35;15.35;;;3.30;99.90;;;3.89;88.98;101413.69;4956536;29;20035;-79
2020/12/26 08:05:41;;;;;;;24.92;16.23;;;3.30;99.90;;;4.00;88.70;101411.66;4949983;29;20027;-81
2020/12/26 08:08:20;;;;;;;23.52;14.80;;;3.30;99.90;;;3.89;88.75;101402.66;4942826;29;20057;-83
2020/12/26 08:10:47;;;;;;;24.33;14.38;;;3.30;99.90;;;3.86;88.33;101399.66;4944974;29;20028;-81
2020/12/26 08:13:16;;;;;;;22.13;14.18;;;3.30;99.90;;;3.88;88.84;101408.47;4948515;29;20031;-81
2020/12/26 08:15:43;;;;;;;21.00;14.45;;;3.30;99.90;;;3.78;89.40;101408.59;4946836;29;20182;-82
2020/12/26 08:18:10;;;;;;;24.00;14.68;;;3.30;99.90;;;3.80;89.68;101418.25;4923845;29;20632;-83
2020/12/26 08:20:37;;;;;;;28.55;15.52;;;3.30;99.90;;;3.90;89.45;101418.13;4941194;29;20038;-82
2020/12/26 08:23:10;;;;;;;26.50;15.95;;;3.30;99.90;;;3.93;89.21;101403.72;4957657;29;20090;-80
2020/12/26 08:25:36;;;;;;;25.48;15.23;;;3.40;99.90;;;4.00;89.03;101412.47;4937782;29;20522;-82
2020/12/26 08:28:02;;;;;;;23.63;13.43;;;3.40;99.90;;;3.98;89.25;101416.66;4940411;29;20066;-81
2020/12/26 08:30:35;;;;;;;21.73;13.35;;;3.40;99.90;;;4.03;88.20;101417.41;4939237;29;20175;-80
2020/12/26 08:33:25;;;;;;;21.52;13.25;;;3.50;99.90;;;4.07;88.17;101418.47;4954032;29;20119;-80
2020/12/26 08:36:35;;;;;;;21.70;11.63;;;3.50;99.90;;;4.14;86.70;101424.44;4945844;28;20035;-81
2020/12/26 08:39:04;;;;;;;21.05;11.55;;;3.60;99.90;;;4.13;86.73;101433.03;4941125;29;20110;-83
2020/12/26 08:41:33;;;;;;;19.73;11.90;;;3.60;99.90;;;4.14;86.54;101423.63;4940998;29;20037;-83
2020/12/26 08:43:59;;;;;;;22.40;12.70;;;3.70;99.90;;;4.14;86.79;101424.44;4940947;29;20373;-81
2020/12/26 08:46:26;;;;;;;25.70;13.00;;;3.60;99.90;;;4.17;86.84;101425.81;4955090;29;20118;-82
2020/12/26 08:48:56;;;;;;;22.40;12.25;;;3.70;99.90;;;4.22;86.05;101420.19;4956256;29;20487;-83
2020/12/26 08:51:29;;;;;;;24.52;12.60;;;3.70;99.90;;;4.21;86.23;101413.84;4955619;29;20099;-82
2020/12/26 08:53:58;;;;;;;21.40;12.52;;;3.70;99.90;;;4.23;86.33;101413.56;4956250;28;20030;-84
2020/12/26 08:56:36;;;;;;;19.08;11.60;;;3.70;99.90;;;4.21;86.63;101427.66;4957509;29;20126;-83
2020/12/26 08:59:04;;;;;;;24.10;12.60;;;3.70;99.90;;;4.19;85.79;101416.09;4972356;29;20095;-83
2020/12/26 09:01:31;;;;;;;18.30;11.98;;;3.70;99.90;;;4.13;86.36;101417.28;4971554;29;20016;-85
2020/12/26 09:03:57;;;;;;;22.98;11.88;;;3.70;99.90;;;4.24;85.68;101417.94;4966043;29;20082;-84
2020/12/26 09:06:39;;;;;;;21.60;13.43;;;3.70;99.90;;;4.21;85.72;101413.00;4956931;29;20062;-83
2020/12/26 09:09:26;;;;;;;23.50;13.18;;;3.70;99.90;;;4.35;85.47;101410.34;4954323;29;20029;-81
2020/12/26 09:12:06;;;;;;;20.58;11.90;;;3.70;99.90;;;4.41;84.20;101406.38;4941018;29;20051;-83
2020/12/26 09:14:32;;;;;;;19.75;10.15;;;3.80;99.90;;;4.34;84.38;101401.22;4941299;29;20032;-82
2020/12/26 09:17:05;;;;;;;22.30;12.00;;;3.90;99.90;;;4.49;84.05;101398.25;4941239;29;20118;-81
2020/12/26 09:19:46;;;;;;;19.80;11.00;;;3.90;99.90;;;4.46;83.99;101403.56;4955490;29;20023;-81
2020/12/26 09:22:13;;;;;;;17.02;10.73;;;4.00;99.90;;;4.50;83.15;101397.09;4947121;29;20039;-81
2020/12/26 09:24:39;;;;;;;18.30;9.68;;;3.90;99.90;;;4.49;83.09;101395.47;4946367;29;20411;-81
2020/12/26 09:27:20;;;;;;;17.73;8.93;;;4.00;99.90;;;4.48;81.92;101402.13;4947888;29;20063;-83
2020/12/26 09:29:49;;;;;;;13.55;8.88;;;3.90;99.90;;;4.56;81.98;101397.88;4956230;29;20038;-83
2020/12/26 09:32:16;;;;;;;18.80;8.65;;;3.90;99.90;;;4.59;81.69;101402.81;4939900;29;20078;-81
2020/12/26 09:34:42;;;;;;;15.20;9.27;;;4.00;99.90;;;4.63;81.39;101403.81;4939726;29;20089;-83
2020/12/26 09:37:09;;;;;;;13.70;8.48;;;4.00;99.90;;;4.47;80.84;101394.94;4939485;29;20027;-84
2020/12/26 09:39:38;;;;;;;16.10;9.65;;;4.00;99.90;;;4.56;81.34;101392.34;4939755;29;20030;-81
2020/12/26 09:42:05;;;;;;;13.95;8.55;;;4.10;99.90;;;4.70;80.61;101395.97;4939843;29;20094;-82
2020/12/26 09:44:31;;;;;;;16.65;7.97;;;4.20;99.90;;;4.84;79.65;101398.81;4939375;29;20127;-83
2020/12/26 09:47:02;;;;;;;14.00;7.70;;;4.20;99.90;;;4.92;79.15;101384.25;4940245;28;20091;-84
2020/12/26 09:49:28;;;;;;;17.08;7.75;;;4.30;99.90;;;4.77;79.02;101388.94;4955212;29;20121;-81
2020/12/26 09:51:55;;;;;;;12.57;7.05;;;4.30;99.90;;;4.86;78.48;101385.47;4939812;29;20028;-82
2020/12/26 09:54:20;;;;;;;11.65;7.38;;;4.30;99.90;;;4.98;78.45;101383.88;4939407;29;20038;-81
2020/12/26 09:56:46;;;;;;;11.85;7.85;;;4.30;99.90;;;4.71;79.46;101370.78;4956298;29;20027;-83
2020/12/26 09:59:12;;;;;;;12.00;8.07;;;4.30;99.90;;;4.84;79.59;101382.19;4939690;29;20063;-81
2020/12/26 10:01:39;;;;;;;14.52;7.63;;;4.30;99.90;;;4.80;79.38;101387.50;4939884;29;20546;-81
2020/12/26 10:04:05;;;;;;;15.70;7.30;;;4.30;99.90;;;4.51;79.46;101379.41;4940202;28;20073;-81
2020/12/26 10:06:31;;;;;;;11.85;7.00;;;4.20;99.90;;;4.67;79.38;101385.50;4939613;29;20085;-82
2020/12/26 10:08:57;;;;;;;15.70;8.77;;;4.10;99.90;;;4.59;80.11;101364.88;4939577;29;20031;-81
2020/12/26 10:11:23;;;;;;;13.18;7.40;;;4.10;99.90;;;4.56;80.42;101372.97;4939363;29;20394;-79
2020/12/26 10:13:49;;;;;;;13.02;7.35;;;4.10;99.90;;;4.69;79.98;101359.16;4939741;29;20058;-80
2020/12/26 10:16:17;;;;;;;15.80;7.93;;;4.10;99.90;;;4.75;80.52;101355.19;4939077;29;20384;-83
2020/12/26 10:18:45;;;;;;;12.05;7.05;;;4.30;99.90;;;4.97;79.21;101357.34;4939329;29;20538;-81
2020/12/26 10:21:17;;;;;;;12.77;7.68;;;4.50;99.90;;;5.28;78.42;101343.75;4939791;29;20066;-83
2020/12/26 10:23:47;;;;;;;16.52;8.13;;;4.70;99.90;;;5.28;78.02;101344.56;4938925;29;20086;-83
2020/12/26 10:26:13;;;;;;;14.38;7.43;;;4.90;99.90;;;5.51;76.51;101334.44;4954525;28;20067;-83